Time;durP1;ratioP1;P1;durP2;ratioP2;P2;SDS_P1;SDS_P2;PMS_P1;PMS_P2;Temp;Humidity;BMP_temperature;BMP_pressure;BME280_temperature;BME280_humidity;BME280_pressure;Samples;Min_cycle;Max_cycle;Signal;HPM_P1;HPM_P2
2021/09/19 00:00:09;;;;;;;2.33;1.83;;;7.40;99.90;;;;;;4937340;29;20275;-94
2021/09/19 00:02:35;;;;;;;2.13;1.90;;;7.40;99.90;;;;;;4937133;29;20638;-94
2021/09/19 00:05:00;;;;;;;1.73;1.60;;;7.40;99.90;;;;;;4936616;29;20187;-93
2021/09/19 00:07:26;;;;;;;2.10;1.83;;;7.40;99.90;;;;;;4937109;29;20262;-96
2021/09/19 00:09:52;;;;;;;1.90;1.50;;;;;;;;;;4936959;29;20192;-93
2021/09/19 00:12:17;;;;;;;2.07;1.60;;;7.80;99.90;;;;;;4919772;29;20196;-93
2021/09/19 00:14:43;;;;;;;1.60;1.50;;;7.40;99.90;;;;;;4919912;29;20214;-93
2021/09/19 00:17:09;;;;;;;2.60;2.00;;;7.40;99.90;;;;;;4936828;29;20315;-95
2021/09/19 00:19:35;;;;;;;1.70;1.40;;;;;;;;;;4936745;29;20539;-93
2021/09/19 00:22:01;;;;;;;2.13;1.33;;;;;;;;;;4919818;29;20586;-92
2021/09/19 00:24:27;;;;;;;2.10;1.90;;;7.40;99.90;;;;;;4920687;29;20180;-93
2021/09/19 00:26:54;;;;;;;1.60;1.33;;;7.40;99.90;;;;;;4920702;29;20687;-91
2021/09/19 00:29:20;;;;;;;1.37;1.27;;;;;;;;;;4921063;29;20194;-94
2021/09/19 00:31:46;;;;;;;1.57;1.47;;;;;;;;;;4922446;29;20219;-94
2021/09/19 00:34:12;;;;;;;1.57;1.17;;;7.50;99.90;;;;;;4937103;29;20192;-92
2021/09/19 00:36:38;;;;;;;2.17;1.63;;;7.40;99.90;;;;;;4937653;29;20180;-94
2021/09/19 00:39:04;;;;;;;1.33;1.20;;;7.40;99.90;;;;;;4920051;29;20255;-94
2021/09/19 00:41:30;;;;;;;1.40;1.30;;;7.40;99.90;;;;;;4889064;29;20303;-95
2021/09/19 00:43:55;;;;;;;1.60;1.30;;;7.40;99.90;;;;;;4937010;29;20188;-95
2021/09/19 00:46:21;;;;;;;1.53;1.43;;;7.40;99.90;;;;;;4936519;29;20688;-93
2021/09/19 00:48:46;;;;;;;1.63;1.43;;;7.30;99.90;;;;;;4936576;29;20668;-94
2021/09/19 00:51:12;;;;;;;1.30;1.17;;;7.40;99.90;;;;;;4919387;29;20653;-92
2021/09/19 00:53:40;;;;;;;1.63;1.30;;;7.50;99.90;;;;;;4904100;29;20348;-92
2021/09/19 00:56:07;;;;;;;1.63;1.43;;;7.40;99.90;;;;;;4936166;29;20187;-93
2021/09/19 00:58:33;;;;;;;1.77;1.60;;;7.40;99.90;;;;;;4936683;29;20184;-93
2021/09/19 01:01:00;;;;;;;2.10;1.77;;;7.40;99.90;;;;;;4919780;29;20294;-94
2021/09/19 01:03:29;;;;;;;1.97;1.60;;;7.40;99.90;;;;;;4919464;29;20184;-93
2021/09/19 01:05:55;;;;;;;1.43;1.33;;;7.40;99.90;;;;;;4904073;29;20179;-93
2021/09/19 01:08:21;;;;;;;3.00;1.50;;;;;;;;;;4919311;29;20243;-92
2021/09/19 01:10:47;;;;;;;2.20;1.87;;;7.40;99.90;;;;;;4938616;29;20239;-93
2021/09/19 01:13:13;;;;;;;1.80;1.70;;;7.40;99.90;;;;;;4922902;29;20187;-93
2021/09/19 01:15:42;;;;;;;2.37;1.50;;;7.40;99.90;;;;;;4922844;29;20231;-92
2021/09/19 01:18:09;;;;;;;2.20;1.50;;;7.40;99.90;;;;;;4906548;29;20208;-90
2021/09/19 01:20:35;;;;;;;2.23;1.60;;;7.40;99.90;;;;;;4922973;29;20215;-91
2021/09/19 01:23:11;;;;;;;1.80;1.40;;;7.40;99.90;;;;;;4924335;29;20187;-92
2021/09/19 01:25:39;;;;;;;1.60;1.50;;;7.40;99.90;;;;;;4916913;29;20259;-90
2021/09/19 01:28:06;;;;;;;1.70;1.50;;;7.40;99.90;;;;;;4948899;29;20263;-92
2021/09/19 01:30:32;;;;;;;1.77;1.20;;;7.40;99.90;;;;;;4941699;29;20188;-92
2021/09/19 01:32:58;;;;;;;2.10;1.47;;;7.40;99.90;;;;;;4950502;29;20190;-91
2021/09/19 01:35:23;;;;;;;2.10;1.70;;;7.40;99.90;;;;;;4942623;29;20160;-91
2021/09/19 01:37:49;;;;;;;2.27;1.40;;;7.40;99.90;;;;;;4936523;29;20184;-92
2021/09/19 01:40:17;;;;;;;1.77;1.53;;;7.40;99.90;;;;;;4923488;29;20215;-92
2021/09/19 01:42:43;;;;;;;1.77;1.47;;;7.40;99.90;;;;;;4940814;29;20185;-92
2021/09/19 01:45:10;;;;;;;1.53;1.43;;;7.40;99.90;;;;;;4924390;29;20520;-93
2021/09/19 01:47:35;;;;;;;2.10;1.40;;;7.40;99.90;;;;;;4939584;29;20255;-93
2021/09/19 01:50:02;;;;;;;2.07;1.60;;;7.30;99.90;;;;;;4922647;29;20274;-93
2021/09/19 01:52:29;;;;;;;2.00;1.50;;;7.40;99.90;;;;;;4921737;29;20294;-92
2021/09/19 01:54:55;;;;;;;2.23;1.30;;;7.30;99.90;;;;;;4938779;29;20188;-92
2021/09/19 01:57:22;;;;;;;1.57;1.43;;;7.30;99.90;;;;;;4905712;29;20198;-92
2021/09/19 01:59:54;;;;;;;1.90;1.30;;;7.40;99.90;;;;;;4921738;29;20215;-92
2021/09/19 02:02:19;;;;;;;3.73;1.63;;;7.30;99.90;;;;;;4938225;29;20255;-91
2021/09/19 02:04:46;;;;;;;2.23;1.40;;;7.30;99.90;;;;;;4921553;29;20287;-91
2021/09/19 02:07:12;;;;;;;4.17;1.33;;;7.30;99.90;;;;;;4938471;29;20183;-92
2021/09/19 02:09:38;;;;;;;1.60;1.50;;;7.30;99.90;;;;;;4921132;29;20194;-91
2021/09/19 02:12:04;;;;;;;3.47;1.80;;;7.30;99.90;;;;;;4921086;29;20263;-91
2021/09/19 02:14:30;;;;;;;2.13;1.40;;;7.30;99.90;;;;;;4937529;29;20186;-90
2021/09/19 02:16:56;;;;;;;5.37;1.37;;;7.30;99.90;;;;;;4889482;29;20239;-91
2021/09/19 02:19:21;;;;;;;2.40;1.70;;;7.30;99.90;;;;;;4937947;29;20188;-90
2021/09/19 02:21:47;;;;;;;3.20;1.80;;;7.30;99.90;;;;;;4904773;29;20254;-91
2021/09/19 02:24:13;;;;;;;1.70;1.60;;;7.30;99.90;;;;;;4937889;29;20188;-91
2021/09/19 02:26:38;;;;;;;2.93;2.10;;;7.30;99.90;;;;;;4920908;29;20179;-91
2021/09/19 02:29:04;;;;;;;2.30;1.80;;;7.30;99.90;;;;;;4921312;29;20187;-91
2021/09/19 02:31:31;;;;;;;2.00;1.63;;;7.30;99.90;;;;;;4937763;29;20184;-91
2021/09/19 02:33:58;;;;;;;2.93;1.80;;;7.30;99.90;;;;;;4920831;29;20184;-91
2021/09/19 02:36:23;;;;;;;1.77;1.63;;;7.30;99.90;;;;;;4920555;29;20330;-91
2021/09/19 02:38:49;;;;;;;1.77;1.60;;;7.30;99.90;;;;;;4937829;29;20266;-90
2021/09/19 02:41:15;;;;;;;3.00;1.87;;;;;;;;;;4937761;29;20260;-92
2021/09/19 02:43:41;;;;;;;1.50;1.30;;;7.30;99.90;;;;;;4937387;29;20195;-93
2021/09/19 02:46:07;;;;;;;2.10;1.60;;;7.30;99.90;;;;;;4937429;29;20184;-91
2021/09/19 02:48:33;;;;;;;1.97;1.40;;;7.20;99.90;;;;;;4920119;29;20637;-91
2021/09/19 02:51:00;;;;;;;1.70;1.27;;;7.30;99.90;;;;;;4937231;29;20641;-90
2021/09/19 02:53:26;;;;;;;3.63;2.00;;;7.30;99.90;;;;;;4904462;29;20253;-91
2021/09/19 02:55:52;;;;;;;1.50;1.40;;;7.30;99.90;;;;;;4937506;29;20192;-91
2021/09/19 02:58:18;;;;;;;2.10;1.70;;;7.30;99.90;;;;;;4920443;29;20215;-90
2021/09/19 03:00:43;;;;;;;2.57;1.53;;;7.20;99.90;;;;;;4888445;29;20212;-91
2021/09/19 03:03:09;;;;;;;2.23;1.50;;;7.20;99.90;;;;;;4939057;29;20188;-91
2021/09/19 03:05:35;;;;;;;1.40;1.23;;;7.20;99.90;;;;;;4928618;29;20220;-90
2021/09/19 03:08:00;;;;;;;2.03;1.63;;;7.30;99.90;;;;;;4928608;29;20547;-90
2021/09/19 03:10:26;;;;;;;2.30;1.57;;;7.20;99.90;;;;;;4937383;29;20688;-91
2021/09/19 03:12:52;;;;;;;2.30;1.40;;;7.20;99.90;;;;;;4945005;29;20653;-91
2021/09/19 03:15:18;;;;;;;2.33;1.50;;;7.30;99.90;;;;;;4916720;29;20248;-92
2021/09/19 03:17:44;;;;;;;2.67;1.67;;;7.20;99.90;;;;;;4938815;29;20346;-92
2021/09/19 03:20:13;;;;;;;1.33;1.23;;;7.30;99.90;;;;;;4921061;29;20326;-92
2021/09/19 03:22:39;;;;;;;1.60;1.50;;;7.30;99.90;;;;;;4921028;29;20533;-91
2021/09/19 03:25:06;;;;;;;1.50;1.40;;;7.30;99.90;;;;;;4937468;29;20188;-92
2021/09/19 03:27:32;;;;;;;2.50;1.70;;;7.30;99.90;;;;;;4904250;29;20216;-92
2021/09/19 03:29:58;;;;;;;2.07;1.40;;;7.30;99.90;;;;;;4936988;29;20243;-92
2021/09/19 03:32:24;;;;;;;1.67;1.57;;;7.30;99.90;;;;;;4936892;29;20183;-92
2021/09/19 03:34:50;;;;;;;2.67;1.60;;;7.30;99.90;;;;;;4937770;29;20644;-92
2021/09/19 03:37:16;;;;;;;2.23;1.87;;;7.30;99.90;;;;;;4938109;29;20180;-93
2021/09/19 03:39:42;;;;;;;1.70;1.60;;;7.30;99.90;;;;;;4919993;29;20251;-92
2021/09/19 03:42:07;;;;;;;1.97;1.63;;;7.30;99.90;;;;;;4920036;29;20546;-92
2021/09/19 03:44:33;;;;;;;1.90;1.80;;;7.30;99.90;;;;;;4936341;29;20676;-91
2021/09/19 03:46:59;;;;;;;2.93;1.70;;;7.20;99.90;;;;;;4936781;29;20541;-92
2021/09/19 03:49:24;;;;;;;2.37;1.90;;;7.30;99.90;;;;;;4919444;29;20630;-91
2021/09/19 03:51:50;;;;;;;1.80;1.60;;;7.30;99.90;;;;;;4919395;29;20696;-92
2021/09/19 03:54:16;;;;;;;1.63;1.40;;;7.30;99.90;;;;;;4919689;29;20176;-91
2021/09/19 03:56:42;;;;;;;1.33;1.20;;;7.30;99.90;;;;;;4919327;29;20239;-92
2021/09/19 03:59:07;;;;;;;2.53;1.77;;;7.30;99.90;;;;;;4919719;29;20188;-92
2021/09/19 04:01:33;;;;;;;2.10;1.43;;;7.20;99.90;;;;;;4936152;29;20259;-91
2021/09/19 04:03:59;;;;;;;2.27;1.70;;;7.20;99.90;;;;;;4903809;29;20208;-91
2021/09/19 04:06:24;;;;;;;1.80;1.43;;;7.20;99.90;;;;;;4936471;29;20517;-92
2021/09/19 04:08:50;;;;;;;1.60;1.40;;;7.20;99.90;;;;;;4919420;29;20968;-92
2021/09/19 04:11:16;;;;;;;2.47;1.73;;;7.20;99.90;;;;;;4919598;29;20645;-92
2021/09/19 04:13:41;;;;;;;1.73;1.63;;;7.20;99.90;;;;;;4919500;29;20626;-92
2021/09/19 04:16:07;;;;;;;1.80;1.37;;;7.20;99.90;;;;;;4919896;29;20742;-91
2021/09/19 04:18:32;;;;;;;1.43;1.13;;;7.20;99.90;;;;;;4919593;29;20190;-90
2021/09/19 04:20:58;;;;;;;1.83;1.40;;;7.20;99.90;;;;;;4937040;29;20223;-91
2021/09/19 04:23:24;;;;;;;1.67;1.40;;;7.20;99.90;;;;;;4923824;29;20184;-91
2021/09/19 04:25:50;;;;;;;3.17;1.53;;;7.20;99.90;;;;;;4941091;29;20199;-91
2021/09/19 04:28:16;;;;;;;1.57;1.47;;;7.20;99.90;;;;;;4939202;29;20188;-92
2021/09/19 04:30:42;;;;;;;1.90;1.70;;;7.20;99.90;;;;;;4936372;29;20192;-92
2021/09/19 04:33:07;;;;;;;3.83;1.70;;;7.20;99.90;;;;;;4936543;29;20215;-91
2021/09/19 04:35:33;;;;;;;1.77;1.63;;;7.20;99.90;;;;;;4903366;29;20317;-92
2021/09/19 04:37:58;;;;;;;2.43;1.90;;;7.10;99.90;;;;;;4935689;29;20180;-91
2021/09/19 04:40:25;;;;;;;2.10;1.80;;;7.20;99.90;;;;;;4903582;29;20620;-91
2021/09/19 04:42:51;;;;;;;2.70;1.80;;;7.20;99.90;;;;;;4935896;29;20259;-92
2021/09/19 04:45:16;;;;;;;2.53;1.90;;;7.20;99.90;;;;;;4920885;29;20268;-91
2021/09/19 04:47:42;;;;;;;13.50;5.63;;;7.20;99.90;;;;;;4939443;29;20216;-91
2021/09/19 04:50:08;;;;;;;1.80;1.67;;;7.20;99.90;;;;;;4922764;29;20275;-92
2021/09/19 04:52:34;;;;;;;2.50;1.83;;;7.20;99.90;;;;;;4922581;29;20239;-91
2021/09/19 04:54:59;;;;;;;2.33;1.70;;;7.30;99.90;;;;;;4922337;29;20548;-93
2021/09/19 04:57:25;;;;;;;2.30;1.90;;;7.30;99.90;;;;;;4906750;29;20774;-91
2021/09/19 04:59:51;;;;;;;3.27;1.73;;;7.30;99.90;;;;;;4939105;29;20573;-90
2021/09/19 05:02:16;;;;;;;2.87;2.20;;;7.30;99.90;;;;;;4939445;29;20235;-91
2021/09/19 05:04:42;;;;;;;3.10;2.07;;;7.30;99.90;;;;;;4939187;29;20245;-91
2021/09/19 05:07:07;;;;;;;2.10;1.87;;;7.30;99.90;;;;;;4939989;29;20180;-93
2021/09/19 05:09:33;;;;;;;2.13;1.93;;;7.30;99.90;;;;;;4925835;29;20179;-92
2021/09/19 05:11:59;;;;;;;2.97;2.20;;;7.30;99.90;;;;;;4943114;29;20267;-89
2021/09/19 05:14:24;;;;;;;2.63;2.10;;;7.30;99.90;;;;;;4922836;29;20196;-92
2021/09/19 05:16:50;;;;;;;3.40;2.33;;;7.30;99.90;;;;;;4939101;29;20238;-93
2021/09/19 05:19:16;;;;;;;2.57;1.87;;;7.30;99.90;;;;;;4907755;29;20688;-93
2021/09/19 05:21:41;;;;;;;2.83;2.20;;;7.30;99.90;;;;;;4906914;29;20247;-93
2021/09/19 05:24:08;;;;;;;3.63;2.00;;;7.40;99.90;;;;;;4922762;29;20641;-93
2021/09/19 05:26:33;;;;;;;3.53;2.33;;;7.30;99.90;;;;;;4939509;29;20210;-93
2021/09/19 05:28:59;;;;;;;3.10;2.47;;;7.40;99.90;;;;;;4906270;29;20184;-93
2021/09/19 05:31:25;;;;;;;3.10;2.30;;;7.40;99.90;;;;;;4922055;29;20716;-93
2021/09/19 05:33:50;;;;;;;3.13;2.30;;;7.40;99.90;;;;;;4938882;29;20184;-94
2021/09/19 05:36:16;;;;;;;3.83;2.70;;;7.40;99.90;;;;;;4922120;29;20188;-93
2021/09/19 05:38:42;;;;;;;2.47;2.20;;;7.40;99.90;;;;;;4939665;29;20705;-95
2021/09/19 05:41:08;;;;;;;2.83;2.50;;;7.40;99.90;;;;;;4922605;29;20272;-94
2021/09/19 05:43:33;;;;;;;2.97;2.40;;;7.40;99.90;;;;;;4938489;29;20270;-94
2021/09/19 05:45:59;;;;;;;3.33;2.37;;;7.40;99.90;;;;;;4936722;29;20192;-93
2021/09/19 05:48:25;;;;;;;2.10;1.90;;;7.50;99.90;;;;;;4922440;29;20199;-93
2021/09/19 05:50:52;;;;;;;2.93;2.20;;;7.50;99.90;;;;;;4923127;29;20187;-94
2021/09/19 05:53:17;;;;;;;2.77;1.90;;;7.50;99.90;;;;;;4939764;29;20203;-93
2021/09/19 05:55:43;;;;;;;2.80;2.17;;;7.40;99.90;;;;;;4924561;29;20641;-95
2021/09/19 05:58:09;;;;;;;2.93;2.10;;;7.50;99.90;;;;;;4924207;29;20184;-94
2021/09/19 06:00:34;;;;;;;3.00;2.03;;;7.50;99.90;;;;;;4907378;29;20215;-94
2021/09/19 06:03:00;;;;;;;4.40;2.17;;;7.50;99.90;;;;;;4906581;29;20211;-94
2021/09/19 06:05:26;;;;;;;2.77;1.97;;;7.50;99.90;;;;;;4928775;29;20307;-94
2021/09/19 06:07:51;;;;;;;5.03;2.47;;;7.50;99.90;;;;;;4937880;29;20522;-93
2021/09/19 06:10:17;;;;;;;2.30;1.97;;;7.60;99.90;;;;;;4921235;29;20216;-93
2021/09/19 06:12:42;;;;;;;3.40;2.40;;;7.60;99.90;;;;;;4935927;29;20192;-90
2021/09/19 06:15:09;;;;;;;2.83;2.40;;;7.80;99.90;;;;;;4909729;29;20200;-92
2021/09/19 06:17:35;;;;;;;7.30;2.83;;;7.60;99.90;;;;;;4932068;29;20168;-90
2021/09/19 06:20:01;;;;;;;4.70;3.20;;;7.60;99.90;;;;;;4964332;23;20234;-90
2021/09/19 06:25:08;;;;;;;4.13;3.33;;;7.60;99.90;;;;;;5025579;23;20269;-91
2021/09/19 06:27:34;;;;;;;4.43;3.30;;;7.60;99.90;;;;;;4958422;28;21144;-89
2021/09/19 06:30:00;;;;;;;3.57;2.73;;;7.70;99.90;;;;;;4966462;28;20226;-93
2021/09/19 06:32:25;;;;;;;4.83;3.33;;;7.70;99.90;;;;;;4966037;29;20163;-96
2021/09/19 06:34:51;;;;;;;4.23;2.77;;;7.70;99.90;;;;;;4966988;28;20191;-95
2021/09/19 06:37:17;;;;;;;3.83;2.80;;;7.70;99.90;;;;;;4951781;29;20192;-90
2021/09/19 06:39:43;;;;;;;3.63;2.83;;;;;;;;;;4973014;23;20330;-94
2021/09/19 06:42:09;;;;;;;4.53;3.27;;;;;;;;;;4945048;29;20195;-91
2021/09/19 06:44:35;;;;;;;4.87;3.50;;;7.70;99.90;;;;;;4946861;29;20204;-93
2021/09/19 06:47:01;;;;;;;3.27;2.50;;;;;;;;;;4931041;29;20672;-92
2021/09/19 06:49:27;;;;;;;5.27;3.20;;;;;;;;;;4944441;29;20279;-92
2021/09/19 06:51:52;;;;;;;4.70;3.47;;;8.00;99.90;;;;;;5068739;23;20235;-88
2021/09/19 06:54:18;;;;;;;6.03;3.77;;;7.60;99.90;;;;;;4969939;28;20271;-86
2021/09/19 06:56:47;;;;;;;4.57;3.53;;;;;;;;;;4976079;23;20257;-88
2021/09/19 06:59:13;;;;;;;4.23;3.30;;;;;;;;;;4929845;29;20330;-87
2021/09/19 07:01:39;;;;;;;7.63;3.47;;;;;;;;;;4919113;29;20208;-88
2021/09/19 07:04:05;;;;;;;4.43;3.50;;;;;;;;;;4902964;29;20199;-92
2021/09/19 07:06:31;;;;;;;7.87;3.60;;;;;;;;;;4910244;29;20179;-94
2021/09/19 07:08:57;;;;;;;5.00;3.70;;;;;;;;;;4940738;23;20225;-90
2021/09/19 07:11:23;;;;;;;5.90;3.80;;;;;;;;;;4974747;23;20234;-92
2021/09/19 07:13:49;;;;;;;4.53;3.80;;;7.90;99.90;;;;;;4965535;28;20187;-91
2021/09/19 07:16:15;;;;;;;6.10;4.00;;;7.70;99.90;;;;;;4962540;28;20197;-86
2021/09/19 07:18:42;;;;;;;7.00;3.93;;;7.90;99.90;;;;;;5055643;23;20234;-89
2021/09/19 07:21:08;;;;;;;8.00;4.30;;;7.70;99.90;;;;;;4983619;28;20305;-92
2021/09/19 07:23:34;;;;;;;6.83;4.20;;;;;;;;;;4972438;28;20231;-90
2021/09/19 07:26:00;;;;;;;5.50;3.97;;;7.90;99.90;;;;;;4984919;28;20258;-89
2021/09/19 07:28:27;;;;;;;5.73;3.47;;;7.70;99.90;;;;;;4984057;28;20208;-90
2021/09/19 07:30:54;;;;;;;5.73;4.07;;;7.70;99.90;;;;;;4958158;28;20190;-90
2021/09/19 07:33:21;;;;;;;7.40;3.73;;;8.00;99.90;;;;;;4961706;28;20190;-92
2021/09/19 07:35:48;;;;;;;6.37;4.17;;;;;;;;;;4994672;28;20186;-89
2021/09/19 07:38:15;;;;;;;6.90;3.47;;;;;;;;;;4994579;28;20186;-89
2021/09/19 07:40:41;;;;;;;4.27;3.57;;;;;;;;;;5116959;23;20243;-89
2021/09/19 07:43:07;;;;;;;9.87;3.83;;;;;;;;;;4953560;28;20207;-90
2021/09/19 07:45:34;;;;;;;6.17;4.17;;;;;;;;;;4955994;28;20199;-89
2021/09/19 07:48:01;;;;;;;5.83;4.17;;;;;;;;;;5002312;23;20260;-86
2021/09/19 07:50:27;;;;;;;5.33;3.30;;;8.00;99.90;;;;;;4957144;28;20203;-87
2021/09/19 07:52:53;;;;;;;5.37;3.90;;;7.90;99.90;;;;;;4945118;29;20187;-88
2021/09/19 07:55:19;;;;;;;7.70;5.80;;;;;;;;;;4960342;23;20445;-89
2021/09/19 07:57:46;;;;;;;4.00;3.35;;;7.90;99.90;;;;;;5011179;23;20191;-87
2021/09/19 08:00:12;;;;;;;5.87;3.63;;;;;;;;;;4960158;29;20222;-94
2021/09/19 08:02:38;;;;;;;5.20;3.47;;;;;;;;;;4957179;28;20179;-89
2021/09/19 08:05:04;;;;;;;5.93;3.63;;;7.90;99.90;;;;;;4943867;29;20195;-86
2021/09/19 08:07:30;;;;;;;5.90;3.60;;;;;;;;;;4963816;29;20533;-93
2021/09/19 08:09:56;;;;;;;6.53;4.30;;;;;;;;;;4960788;28;20191;-92
2021/09/19 08:12:22;;;;;;;10.60;3.70;;;;;;;;;;4964024;28;20215;-87
2021/09/19 08:14:48;;;;;;;6.60;4.03;;;;;;;;;;4934091;29;20594;-92
2021/09/19 08:17:14;;;;;;;9.03;4.03;;;;;;;;;;4964130;28;20188;-90
2021/09/19 08:19:41;;;;;;;9.40;4.37;;;;;;;;;;5051932;23;20255;-91
2021/09/19 08:22:07;;;;;;;7.93;4.20;;;;;;;;;;4950954;29;20188;-86
2021/09/19 08:24:33;;;;;;;6.83;4.27;;;;;;;;;;5430549;23;20250;-91
2021/09/19 08:26:59;;;;;;;8.07;4.30;;;;;;;;;;4985585;28;20195;-89
2021/09/19 08:29:25;;;;;;;5.33;3.53;;;;;;;;;;4969266;28;20195;-92
2021/09/19 08:31:53;;;;;;;6.80;4.03;;;;;;;;;;4962246;28;20186;-91
2021/09/19 08:34:19;;;;;;;6.83;3.90;;;;;;;;;;5319787;23;20219;-89
2021/09/19 08:36:45;;;;;;;10.33;4.30;;;;;;;;;;5108972;23;20273;-88
2021/09/19 08:41:50;;;;;;;7.97;4.10;;;;;;;;;;5367958;23;20238;-88
2021/09/19 08:46:52;;;;;;;5.83;3.53;;;;;;;;;;4931970;26;20285;-93
2021/09/19 08:54:30;;;;;;;5.77;3.53;;;;;;;;;;5776689;23;20297;-92
2021/09/19 08:56:56;;;;;;;8.10;3.90;;;;;;;;;;4970364;28;20191;-89
2021/09/19 08:59:22;;;;;;;6.27;3.73;;;;;;;;;;4977123;28;20206;-93
2021/09/19 09:02:02;;;;;;;5.77;3.87;;;8.20;99.90;;;;;;5122402;23;20249;-90
2021/09/19 09:04:28;;;;;;;7.97;3.90;;;;;;;;;;5102864;23;20250;-93
2021/09/19 09:06:55;;;;;;;4.27;3.70;;;8.20;99.90;;;;;;4965634;28;20180;-95
2021/09/19 09:09:21;;;;;;;6.67;3.80;;;8.30;99.90;;;;;;4926761;29;20204;-91
2021/09/19 09:12:06;;;;;;;8.97;4.10;;;8.10;99.90;;;;;;4929982;29;20176;-92
2021/09/19 09:14:59;;;;;;;6.00;3.57;;;8.20;99.90;;;;;;4967767;28;20182;-91
2021/09/19 09:17:27;;;;;;;6.23;3.93;;;8.10;99.90;;;;;;4990285;23;20233;-93
2021/09/19 09:19:55;;;;;;;7.30;3.50;;;8.10;99.90;;;;;;4935436;29;20161;-88
2021/09/19 09:25:12;;;;;;;9.27;3.90;;;8.10;99.90;;;;;;5068859;23;20242;-89
2021/09/19 09:27:42;;;;;;;6.83;3.93;;;8.30;99.90;;;;;;4989642;28;20176;-88
2021/09/19 09:30:25;;;;;;;5.70;4.10;;;8.10;99.90;;;;;;4962271;28;20176;-91
2021/09/19 09:32:55;;;;;;;8.47;4.50;;;8.10;99.90;;;;;;4968402;29;20160;-92
2021/09/19 09:35:23;;;;;;;9.80;4.27;;;8.10;99.90;;;;;;4969469;29;20172;-90
2021/09/19 09:37:49;;;;;;;6.03;3.47;;;;;;;;;;4959054;29;20180;-93
2021/09/19 09:40:24;;;;;;;6.97;4.33;;;8.10;99.90;;;;;;4965770;28;20270;-92
2021/09/19 09:43:14;;;;;;;5.90;4.10;;;8.10;99.90;;;;;;4969411;28;20195;-89
2021/09/19 09:45:42;;;;;;;7.80;4.63;;;8.00;99.90;;;;;;5006688;23;20223;-88
2021/09/19 09:50:44;;;;;;;5.50;3.83;;;;;;;;;;5256271;23;20306;-88
2021/09/19 09:53:12;;;;;;;8.13;3.80;;;8.00;99.90;;;;;;5078225;23;20225;-91
2021/09/19 09:55:43;;;;;;;8.57;4.90;;;8.00;99.90;;;;;;4979818;23;20243;-87
2021/09/19 09:58:11;;;;;;;6.60;4.20;;;8.00;99.90;;;;;;5052565;23;20235;-88
2021/09/19 10:00:38;;;;;;;4.90;3.17;;;7.60;99.90;;;;;;4968505;23;20235;-91
2021/09/19 10:03:04;;;;;;;6.50;3.73;;;7.90;99.90;;;;;;4987567;23;20219;-91
2021/09/19 10:05:30;;;;;;;9.03;4.00;;;8.20;99.90;;;;;;4990087;28;20191;-89
2021/09/19 10:07:58;;;;;;;4.80;3.60;;;;;;;;;;5029467;23;20227;-92
2021/09/19 10:10:28;;;;;;;7.83;3.80;;;8.10;99.90;;;;;;4961195;28;20240;-89
2021/09/19 10:12:56;;;;;;;5.07;3.13;;;8.10;99.90;;;;;;4961920;28;20188;-90
2021/09/19 10:15:24;;;;;;;5.17;3.50;;;8.10;99.90;;;;;;4961404;28;20170;-88
2021/09/19 10:17:50;;;;;;;6.40;3.53;;;;;;;;;;4944731;29;20176;-90
2021/09/19 10:20:19;;;;;;;6.07;4.07;;;8.10;99.90;;;;;;4966238;28;20214;-93
2021/09/19 10:22:55;;;;;;;5.33;3.60;;;8.10;99.90;;;;;;4959948;29;20249;-93
2021/09/19 10:26:01;;;;;;;5.40;3.73;;;8.10;99.90;;;;;;4947853;29;20179;-91
2021/09/19 10:28:30;;;;;;;6.13;3.53;;;8.50;99.90;;;;;;4966655;28;20194;-94
2021/09/19 10:31:20;;;;;;;4.93;3.63;;;8.20;99.90;;;;;;4960299;29;20620;-93
2021/09/19 10:33:54;;;;;;;4.73;3.50;;;8.20;99.90;;;;;;4950786;29;20187;-91
2021/09/19 10:36:50;;;;;;;4.47;3.00;;;8.20;99.90;;;;;;4946312;29;20171;-94
2021/09/19 10:39:23;;;;;;;4.70;2.93;;;8.10;99.90;;;;;;4948215;29;20183;-91
2021/09/19 10:42:27;;;;;;;7.50;4.23;;;8.00;99.90;;;;;;4958128;28;20634;-95
2021/09/19 10:44:59;;;;;;;6.03;3.57;;;8.10;99.90;;;;;;4954299;29;20175;-93
2021/09/19 10:47:38;;;;;;;8.07;4.53;;;8.10;99.90;;;;;;4951509;29;20205;-93
2021/09/19 10:50:21;;;;;;;4.90;3.27;;;8.10;99.90;;;;;;4952424;28;20230;-95
2021/09/19 10:52:56;;;;;;;7.33;3.37;;;8.10;99.90;;;;;;4952012;29;20212;-92
2021/09/19 10:55:48;;;;;;;6.80;3.30;;;8.10;99.90;;;;;;4959125;28;20186;-89
2021/09/19 10:58:25;;;;;;;4.47;3.10;;;8.10;99.90;;;;;;4943250;29;20195;-89
2021/09/19 11:01:07;;;;;;;3.63;3.13;;;8.00;99.90;;;;;;4949501;29;20200;-90
2021/09/19 11:03:33;;;;;;;4.73;3.67;;;8.00;99.90;;;;;;4942547;29;20245;-91
2021/09/19 11:05:58;;;;;;;5.10;3.70;;;8.00;99.90;;;;;;4943071;29;20218;-89
2021/09/19 11:08:36;;;;;;;4.17;3.27;;;8.00;99.90;;;;;;4948259;29;20502;-92
2021/09/19 11:11:03;;;;;;;4.60;3.53;;;8.10;99.90;;;;;;4942483;29;20269;-93
2021/09/19 11:13:35;;;;;;;5.60;3.27;;;8.10;99.90;;;;;;4948512;29;20183;-94
2021/09/19 11:16:04;;;;;;;5.87;4.00;;;8.20;99.90;;;;;;4941960;29;20183;-95
2021/09/19 11:18:30;;;;;;;4.33;3.73;;;8.20;99.90;;;;;;4945077;29;20180;-93
2021/09/19 11:21:11;;;;;;;6.30;3.93;;;8.20;99.90;;;;;;4948318;29;20226;-91
2021/09/19 11:23:45;;;;;;;4.37;2.90;;;8.30;99.90;;;;;;4944974;29;20277;-92
2021/09/19 11:26:11;;;;;;;5.23;3.43;;;;;;;;;;4929052;29;20179;-94
2021/09/19 11:28:37;;;;;;;5.20;3.30;;;8.40;99.90;;;;;;4943158;29;20250;-93
2021/09/19 11:31:04;;;;;;;4.57;3.40;;;8.30;99.90;;;;;;4946325;29;20186;-94
2021/09/19 11:33:33;;;;;;;3.30;2.50;;;8.30;99.90;;;;;;4937209;29;20181;-93
2021/09/19 11:36:08;;;;;;;5.60;3.23;;;8.30;99.90;;;;;;4957529;29;20187;-91
2021/09/19 11:39:04;;;;;;;4.40;3.03;;;8.40;99.90;;;;;;4951846;29;20271;-94
2021/09/19 11:41:30;;;;;;;3.57;2.50;;;;;;;;;;4954268;29;20238;-89
2021/09/19 11:43:56;;;;;;;4.30;2.70;;;8.50;99.90;;;;;;4952056;29;20183;-94
2021/09/19 11:46:25;;;;;;;6.10;3.27;;;8.30;99.90;;;;;;4947281;29;20172;-93
2021/09/19 11:48:51;;;;;;;4.30;2.67;;;8.30;99.90;;;;;;4956989;29;20319;-94
2021/09/19 11:51:18;;;;;;;5.00;3.53;;;8.40;99.90;;;;;;4960231;29;20270;-93
2021/09/19 11:53:52;;;;;;;5.00;3.07;;;8.50;99.90;;;;;;4952102;28;20188;-94
2021/09/19 11:56:19;;;;;;;2.93;2.57;;;8.50;99.90;;;;;;4953061;29;20638;-94
2021/09/19 11:58:47;;;;;;;6.67;2.57;;;8.50;99.90;;;;;;4957961;29;20207;-94
2021/09/19 12:01:13;;;;;;;4.00;2.17;;;8.50;99.90;;;;;;4943696;29;20211;-93
2021/09/19 12:03:40;;;;;;;4.70;2.30;;;8.50;99.90;;;;;;4961883;29;20168;-87
2021/09/19 12:06:08;;;;;;;2.73;2.23;;;;;;;;;;4928830;29;20188;-94
2021/09/19 12:08:34;;;;;;;4.43;2.87;;;;;;;;;;4943718;29;20191;-88
2021/09/19 12:11:01;;;;;;;3.43;2.70;;;8.50;99.90;;;;;;4956374;29;20211;-93
2021/09/19 12:13:28;;;;;;;6.07;2.60;;;8.40;99.90;;;;;;4951368;29;20732;-95
2021/09/19 12:16:08;;;;;;;5.63;2.97;;;8.40;99.90;;;;;;4959193;29;20191;-91
2021/09/19 12:18:37;;;;;;;4.03;3.20;;;8.40;99.90;;;;;;4959651;28;20223;-89
2021/09/19 12:21:08;;;;;;;4.93;2.40;;;8.30;99.90;;;;;;4959578;29;20226;-89
2021/09/19 12:23:49;;;;;;;4.53;3.23;;;8.20;99.90;;;;;;4961945;29;20172;-95
2021/09/19 12:26:24;;;;;;;3.53;2.27;;;8.20;99.90;;;;;;4962611;29;20188;-93
2021/09/19 12:28:57;;;;;;;2.73;2.43;;;8.00;99.90;;;;;;4957858;29;20241;-91
2021/09/19 12:31:42;;;;;;;7.00;3.10;;;8.10;99.90;;;;;;4985969;23;20323;-94
2021/09/19 12:34:11;;;;;;;3.73;2.60;;;8.10;99.90;;;;;;5029152;23;20266;-94
2021/09/19 12:36:42;;;;;;;4.43;2.77;;;8.10;99.90;;;;;;5148075;23;20246;-88
2021/09/19 12:41:41;;;;;;;4.83;2.83;;;;;;;;;;5023976;23;20239;-93
2021/09/19 12:44:14;;;;;;;6.97;3.57;;;8.10;99.90;;;;;;5018985;23;20230;-95
2021/09/19 12:46:51;;;;;;;7.77;2.90;;;8.00;99.90;;;;;;5126147;23;20242;-93
2021/09/19 12:49:21;;;;;;;6.37;3.83;;;8.30;99.90;;;;;;4988423;28;20186;-94
2021/09/19 12:52:06;;;;;;;9.60;4.90;;;8.40;99.90;;;;;;5005339;23;20201;-89
2021/09/19 12:54:33;;;;;;;7.97;5.07;;;8.40;99.90;;;;;;4945969;28;20272;-91
2021/09/19 12:57:00;;;;;;;4.70;3.83;;;;;;;;;;5058790;23;20576;-95
2021/09/19 12:59:26;;;;;;;4.97;3.00;;;;;;;;;;4924579;29;20200;-94
2021/09/19 13:01:52;;;;;;;3.90;2.40;;;;;;;;;;4926970;28;20200;-91
2021/09/19 13:04:20;;;;;;;4.13;2.43;;;;;;;;;;4978465;23;20173;-91
2021/09/19 13:06:46;;;;;;;3.93;2.70;;;;;;;;;;4934850;29;20189;-93
2021/09/19 13:09:13;;;;;;;4.27;2.70;;;;;;;;;;5021551;23;20251;-95
2021/09/19 13:11:39;;;;;;;5.30;2.97;;;;;;;;;;4944148;29;20263;-95
2021/09/19 13:14:06;;;;;;;6.10;2.60;;;;;;;;;;4978098;23;20243;-91
2021/09/19 13:16:31;;;;;;;5.60;2.60;;;8.10;99.90;;;;;;4967476;28;20191;-91
2021/09/19 13:18:57;;;;;;;3.90;2.50;;;8.10;99.90;;;;;;4934237;29;20196;-94
2021/09/19 13:21:25;;;;;;;2.90;2.40;;;8.10;99.90;;;;;;4966801;28;20207;-89
2021/09/19 13:23:51;;;;;;;4.37;2.70;;;8.00;99.90;;;;;;5046371;23;20246;-89
2021/09/19 13:26:17;;;;;;;3.87;2.77;;;8.10;99.90;;;;;;4965096;28;20225;-93
2021/09/19 13:31:12;;;;;;;3.97;2.40;;;;;;;;;;4970216;28;20216;-90
2021/09/19 13:33:37;;;;;;;3.37;2.50;;;8.10;99.90;;;;;;4958365;28;20246;-93
2021/09/19 13:36:03;;;;;;;5.30;2.53;;;8.30;99.90;;;;;;4989848;28;20373;-95
2021/09/19 13:38:29;;;;;;;4.00;2.83;;;8.10;99.90;;;;;;4951387;28;20628;-94
2021/09/19 13:40:56;;;;;;;3.40;2.40;;;8.20;99.90;;;;;;4960696;28;20222;-95
2021/09/19 13:43:22;;;;;;;4.60;3.07;;;;;;;;;;5018903;23;20245;-95